Time;durP1;ratioP1;P1;durP2;ratioP2;P2;SDS_P1;SDS_P2;PMS_P1;PMS_P2;Temp;Humidity;BMP_temperature;BMP_pressure;BME280_temperature;BME280_humidity;BME280_pressure;Samples;Min_cycle;Max_cycle;Signal;HPM_P1;HPM_P2
2023/09/09 00:00:40;;;;;;;6.43;5.93;;;23.40;68.10;;;;;;5055278;28;20616;-61
2023/09/09 00:03:06;;;;;;;6.15;5.65;;;23.30;68.00;;;;;;5055811;28;20174;-61
2023/09/09 00:05:35;;;;;;;6.45;5.95;;;23.40;68.10;;;;;;5055791;28;20180;-61
2023/09/09 00:08:01;;;;;;;6.60;6.10;;;23.40;68.10;;;;;;5054797;28;20228;-62
2023/09/09 00:10:27;;;;;;;7.10;6.60;;;23.40;68.20;;;;;;5055546;28;20175;-62
2023/09/09 00:12:52;;;;;;;6.38;5.78;;;23.40;68.10;;;;;;5055379;28;20598;-60
2023/09/09 00:15:18;;;;;;;6.70;6.20;;;23.40;68.10;;;;;;5054285;28;20172;-60
2023/09/09 00:17:43;;;;;;;6.25;5.75;;;23.40;68.10;;;;;;5055512;28;20195;-60
2023/09/09 00:20:11;;;;;;;6.35;5.80;;;23.40;68.10;;;;;;5055181;28;20182;-60
2023/09/09 00:22:36;;;;;;;6.38;5.88;;;23.30;68.00;;;;;;5054724;28;20187;-61
2023/09/09 00:25:02;;;;;;;6.40;5.90;;;23.30;68.20;;;;;;5055042;28;20164;-60
2023/09/09 00:27:28;;;;;;;6.32;5.82;;;23.40;68.10;;;;;;5055089;28;20271;-60
2023/09/09 00:29:53;;;;;;;6.15;5.65;;;23.40;68.00;;;;;;5054423;28;20175;-59
2023/09/09 00:32:19;;;;;;;6.07;5.68;;;23.30;68.00;;;;;;5054847;28;20221;-60
2023/09/09 00:34:44;;;;;;;6.32;5.72;;;23.40;68.00;;;;;;5055088;28;20167;-60
2023/09/09 00:37:10;;;;;;;6.35;5.85;;;23.40;68.90;;;;;;5054060;28;20302;-61
2023/09/09 00:39:35;;;;;;;6.50;5.90;;;23.30;67.90;;;;;;5054851;28;20172;-60
2023/09/09 00:42:01;;;;;;;6.65;6.15;;;23.30;67.90;;;;;;5054999;28;20179;-60
2023/09/09 00:44:27;;;;;;;6.15;5.75;;;23.40;68.00;;;;;;5053999;28;20526;-61
2023/09/09 00:46:52;;;;;;;6.68;6.18;;;23.30;67.90;;;;;;5054872;28;20183;-60
2023/09/09 00:49:18;;;;;;;6.00;5.50;;;23.30;67.90;;;;;;5053509;28;20198;-60
2023/09/09 00:51:44;;;;;;;6.50;6.00;;;23.40;68.00;;;;;;5053013;28;20179;-60
2023/09/09 00:54:13;;;;;;;6.80;6.30;;;23.30;67.90;;;;;;5053155;28;20175;-60
2023/09/09 00:56:39;;;;;;;6.75;6.25;;;23.30;67.90;;;;;;5054843;28;20214;-59
2023/09/09 00:59:04;;;;;;;6.90;6.38;;;23.30;67.90;;;;;;5053728;28;20230;-59
2023/09/09 01:01:31;;;;;;;6.00;5.60;;;23.30;68.70;;;;;;5054337;28;20178;-61
2023/09/09 01:03:57;;;;;;;6.78;6.25;;;23.30;67.90;;;;;;5054065;28;20182;-60
2023/09/09 01:06:22;;;;;;;6.93;6.43;;;23.30;67.90;;;;;;5054489;28;20186;-61
2023/09/09 01:08:48;;;;;;;6.30;5.80;;;23.30;67.90;;;;;;5054452;28;20175;-61
2023/09/09 01:11:14;;;;;;;6.70;6.20;;;23.30;67.90;;;;;;5053423;28;20187;-61
2023/09/09 01:13:39;;;;;;;6.93;6.32;;;23.30;67.90;;;;;;5054421;28;20210;-60
2023/09/09 01:16:05;;;;;;;7.18;6.65;;;23.30;67.90;;;;;;5052945;28;20207;-60
2023/09/09 01:18:33;;;;;;;6.57;6.03;;;23.30;67.90;;;;;;5052468;28;20217;-60
2023/09/09 01:21:08;;;;;;;6.38;5.85;;;23.30;67.90;;;;;;5052818;28;20179;-60
2023/09/09 01:23:33;;;;;;;6.28;5.78;;;23.30;67.90;;;;;;5052810;28;20198;-60
2023/09/09 01:25:59;;;;;;;5.85;5.40;;;23.30;67.90;;;;;;5053216;28;20207;-60
2023/09/09 01:28:25;;;;;;;6.30;5.80;;;23.30;67.90;;;;;;5054014;28;20183;-59
2023/09/09 01:30:50;;;;;;;6.60;6.10;;;23.30;67.80;;;;;;5054130;28;20181;-59
2023/09/09 01:33:16;;;;;;;6.75;6.25;;;23.30;67.90;;;;;;5053094;28;20172;-59
2023/09/09 01:35:42;;;;;;;6.80;6.30;;;23.30;67.90;;;;;;5053992;28;20685;-60
2023/09/09 01:38:07;;;;;;;6.85;6.35;;;23.30;67.80;;;;;;5053683;28;20186;-60
2023/09/09 01:40:33;;;;;;;6.30;5.82;;;23.30;67.90;;;;;;5053267;28;20202;-61
2023/09/09 01:42:58;;;;;;;6.72;6.22;;;23.30;67.90;;;;;;5053723;28;20183;-60
2023/09/09 01:45:24;;;;;;;8.52;6.30;;;23.30;67.90;;;;;;5053846;28;20171;-61
2023/09/09 01:47:50;;;;;;;6.90;6.38;;;23.30;67.80;;;;;;5052981;28;20186;-61
2023/09/09 01:50:15;;;;;;;6.65;6.00;;;23.30;67.90;;;;;;5053322;28;20179;-60
2023/09/09 01:52:41;;;;;;;7.07;6.47;;;23.30;67.80;;;;;;5053583;28;20179;-60
2023/09/09 01:55:06;;;;;;;7.05;6.45;;;23.30;67.90;;;;;;5052810;28;20179;-60
2023/09/09 01:57:32;;;;;;;6.53;6.03;;;23.30;67.80;;;;;;5053509;28;20207;-59
2023/09/09 01:59:58;;;;;;;6.25;5.78;;;23.30;67.80;;;;;;5053103;28;20219;-59
2023/09/09 02:02:23;;;;;;;6.35;5.88;;;23.30;67.80;;;;;;5052729;28;20186;-60
2023/09/09 02:04:49;;;;;;;6.20;5.70;;;23.30;67.90;;;;;;5053417;28;20700;-60
2023/09/09 02:07:14;;;;;;;6.28;5.78;;;23.30;67.80;;;;;;5052304;28;20541;-61
2023/09/09 02:09:41;;;;;;;6.53;6.03;;;23.30;67.80;;;;;;5053280;28;20167;-60
2023/09/09 02:12:07;;;;;;;7.28;6.70;;;23.30;67.80;;;;;;5053203;28;20233;-60
2023/09/09 02:14:32;;;;;;;6.90;6.40;;;23.20;67.80;;;;;;5052063;28;20525;-60
2023/09/09 02:16:58;;;;;;;6.75;6.18;;;23.30;67.80;;;;;;5053164;28;20217;-60
2023/09/09 02:19:23;;;;;;;6.57;6.07;;;23.30;67.80;;;;;;5053160;28;20175;-60
2023/09/09 02:21:49;;;;;;;6.65;6.15;;;23.30;67.80;;;;;;5052224;28;20175;-60
2023/09/09 02:24:15;;;;;;;6.72;6.22;;;23.30;67.80;;;;;;5052992;28;20178;-60
2023/09/09 02:26:40;;;;;;;6.85;6.35;;;23.30;67.80;;;;;;5051755;28;20530;-60
2023/09/09 02:29:06;;;;;;;6.60;6.10;;;23.30;67.80;;;;;;5052222;28;20186;-59
2023/09/09 02:31:31;;;;;;;6.85;6.25;;;23.30;67.80;;;;;;5053140;28;20516;-60
2023/09/09 02:33:57;;;;;;;7.50;6.90;;;23.20;67.70;;;;;;5053092;28;20656;-60
2023/09/09 02:36:22;;;;;;;7.13;6.50;;;23.20;67.80;;;;;;5051907;28;20194;-60
2023/09/09 02:38:48;;;;;;;6.47;6.00;;;23.20;68.50;;;;;;5053107;28;20262;-61
2023/09/09 02:41:13;;;;;;;6.72;6.22;;;23.20;67.70;;;;;;5052441;28;20186;-61
2023/09/09 02:43:39;;;;;;;6.60;6.05;;;23.20;67.70;;;;;;5052245;28;20175;-60
2023/09/09 02:46:05;;;;;;;7.20;6.63;;;23.20;67.70;;;;;;5052630;28;20626;-60
2023/09/09 02:48:30;;;;;;;6.63;6.13;;;23.20;67.70;;;;;;5052614;28;20210;-61
2023/09/09 02:50:56;;;;;;;6.63;6.13;;;23.20;67.70;;;;;;5052051;28;20175;-60
2023/09/09 02:53:22;;;;;;;6.93;6.38;;;23.20;67.70;;;;;;5052573;28;20206;-60
2023/09/09 02:55:47;;;;;;;6.97;6.47;;;23.20;67.70;;;;;;5052804;28;20206;-60
2023/09/09 02:58:14;;;;;;;6.40;5.90;;;23.20;67.70;;;;;;5051715;28;20238;-60
2023/09/09 03:00:39;;;;;;;6.57;6.07;;;23.20;67.70;;;;;;5052414;28;20229;-60
2023/09/09 03:03:05;;;;;;;7.07;6.57;;;23.20;67.60;;;;;;5052513;28;20266;-61
2023/09/09 03:05:36;;;;;;;7.07;6.53;;;23.20;67.70;;;;;;5051698;28;20606;-62
2023/09/09 03:08:03;;;;;;;7.00;6.40;;;23.20;67.70;;;;;;5052411;28;20190;-63
2023/09/09 03:10:28;;;;;;;7.28;6.68;;;23.20;67.70;;;;;;5052619;28;20262;-62
2023/09/09 03:12:56;;;;;;;7.55;6.85;;;23.20;67.70;;;;;;5051965;28;20258;-61
2023/09/09 03:15:22;;;;;;;6.50;6.00;;;23.20;67.60;;;;;;5052202;28;20179;-62
2023/09/09 03:17:48;;;;;;;7.13;6.53;;;23.20;67.60;;;;;;5051722;28;20261;-62
2023/09/09 03:20:14;;;;;;;7.20;6.47;;;23.20;67.50;;;;;;5052133;28;20313;-62
2023/09/09 03:22:39;;;;;;;6.65;6.15;;;23.20;67.70;;;;;;5052651;28;20175;-62
2023/09/09 03:25:07;;;;;;;6.70;6.10;;;23.20;67.60;;;;;;5052530;28;20810;-61
2023/09/09 03:27:32;;;;;;;7.15;6.55;;;23.20;67.60;;;;;;5056566;28;20225;-61
2023/09/09 03:29:58;;;;;;;6.47;5.97;;;23.20;67.60;;;;;;5056096;28;20529;-61
2023/09/09 03:32:25;;;;;;;6.72;6.22;;;23.20;67.60;;;;;;5055711;28;20175;-61
2023/09/09 03:34:51;;;;;;;6.47;5.97;;;23.20;67.50;;;;;;5056173;28;20171;-61
2023/09/09 03:37:17;;;;;;;6.82;6.22;;;23.20;67.50;;;;;;5055934;28;20268;-62
2023/09/09 03:39:43;;;;;;;6.88;6.28;;;23.20;67.50;;;;;;5055563;28;20175;-62
2023/09/09 03:42:08;;;;;;;6.50;5.90;;;23.20;67.50;;;;;;5055930;28;20179;-63
2023/09/09 03:44:34;;;;;;;7.13;6.45;;;23.20;67.50;;;;;;5055930;28;20183;-62
2023/09/09 03:46:59;;;;;;;6.63;6.10;;;23.20;67.50;;;;;;5055169;28;20215;-62
2023/09/09 03:49:25;;;;;;;6.95;6.45;;;23.20;67.50;;;;;;5055766;28;20217;-62
2023/09/09 03:51:51;;;;;;;6.32;5.90;;;23.20;67.40;;;;;;5056359;28;20515;-62
2023/09/09 03:54:16;;;;;;;6.78;6.28;;;23.20;67.40;;;;;;5055016;28;20174;-61
2023/09/09 03:56:42;;;;;;;6.50;6.00;;;23.20;67.50;;;;;;5055809;28;20659;-61
2023/09/09 03:59:08;;;;;;;6.75;6.22;;;23.20;67.40;;;;;;5055547;28;20277;-61
2023/09/09 04:01:34;;;;;;;6.38;5.88;;;23.10;67.40;;;;;;5054946;28;20167;-62
2023/09/09 04:04:00;;;;;;;6.72;6.22;;;23.20;67.40;;;;;;5055436;28;20182;-62
2023/09/09 04:06:27;;;;;;;6.75;6.15;;;23.10;67.40;;;;;;5055805;28;20171;-62
2023/09/09 04:08:56;;;;;;;6.22;5.75;;;23.20;67.50;;;;;;5055021;28;20171;-62
2023/09/09 04:11:22;;;;;;;6.32;5.78;;;23.20;67.40;;;;;;5055393;28;20182;-62
2023/09/09 04:13:47;;;;;;;6.75;6.25;;;23.20;67.40;;;;;;5055596;28;20175;-62
2023/09/09 04:16:13;;;;;;;6.15;5.75;;;23.10;67.40;;;;;;5054269;28;20735;-62
2023/09/09 04:18:38;;;;;;;6.70;6.03;;;23.20;67.40;;;;;;5055485;28;20175;-62
2023/09/09 04:21:04;;;;;;;6.88;6.35;;;23.20;67.40;;;;;;5054600;28;20646;-62
2023/09/09 04:23:29;;;;;;;6.65;6.07;;;23.20;67.40;;;;;;5055486;28;20542;-63
2023/09/09 04:25:55;;;;;;;6.95;6.45;;;23.10;67.40;;;;;;5055334;28;20257;-62
2023/09/09 04:28:27;;;;;;;6.85;6.25;;;23.10;67.40;;;;;;5054343;28;20237;-61
2023/09/09 04:30:52;;;;;;;6.30;5.90;;;23.10;67.40;;;;;;5055216;28;20176;-60
2023/09/09 04:33:18;;;;;;;6.22;5.80;;;23.10;67.40;;;;;;5055045;28;20183;-61
2023/09/09 04:35:44;;;;;;;6.53;6.03;;;23.10;67.40;;;;;;5054654;28;20202;-60
2023/09/09 04:38:10;;;;;;;6.60;6.10;;;23.10;67.40;;;;;;5054122;28;20553;-61
2023/09/09 04:40:40;;;;;;;6.00;5.60;;;23.10;67.40;;;;;;5055037;28;20177;-61
2023/09/09 04:43:05;;;;;;;7.30;6.60;;;23.10;67.40;;;;;;5054065;28;20646;-61
2023/09/09 04:45:31;;;;;;;7.07;6.55;;;23.10;67.30;;;;;;5054731;28;20270;-61
2023/09/09 04:47:56;;;;;;;7.32;6.72;;;23.10;67.30;;;;;;5055112;28;20179;-61
2023/09/09 04:50:22;;;;;;;6.88;6.28;;;23.10;67.30;;;;;;5054137;28;20258;-61
2023/09/09 04:52:47;;;;;;;6.47;6.03;;;23.10;67.30;;;;;;5054895;28;20696;-60
2023/09/09 04:55:13;;;;;;;6.20;5.70;;;23.10;67.40;;;;;;5054566;28;20203;-60
2023/09/09 04:57:40;;;;;;;6.60;6.10;;;23.10;67.30;;;;;;5053768;28;20686;-60
2023/09/09 05:00:07;;;;;;;6.57;6.07;;;23.10;67.30;;;;;;5054206;28;20231;-60
2023/09/09 05:02:36;;;;;;;6.30;5.90;;;23.10;67.30;;;;;;5054728;28;20263;-60
2023/09/09 05:05:04;;;;;;;6.40;5.90;;;23.10;67.30;;;;;;5053816;28;20195;-61
2023/09/09 05:07:34;;;;;;;6.75;6.25;;;23.10;67.30;;;;;;5054541;28;20397;-61
2023/09/09 05:10:01;;;;;;;6.55;6.05;;;23.10;67.30;;;;;;5054327;28;20266;-60
2023/09/09 05:12:27;;;;;;;6.93;6.43;;;23.10;67.30;;;;;;5053551;28;20190;-60
2023/09/09 05:14:52;;;;;;;7.15;6.50;;;23.10;67.20;;;;;;5054372;28;20175;-60
2023/09/09 05:17:18;;;;;;;7.13;6.60;;;23.10;68.00;;;;;;5053451;28;20215;-61
2023/09/09 05:19:43;;;;;;;6.60;6.10;;;23.10;67.20;;;;;;5054404;28;20221;-61
2023/09/09 05:22:09;;;;;;;7.18;6.55;;;23.10;67.20;;;;;;5054064;28;20309;-61
2023/09/09 05:24:34;;;;;;;6.15;5.70;;;23.10;67.20;;;;;;5053534;28;20202;-61
2023/09/09 05:27:00;;;;;;;6.97;6.38;;;23.10;67.20;;;;;;5053877;28;20171;-60
2023/09/09 05:29:25;;;;;;;7.25;6.65;;;23.10;67.20;;;;;;5053808;28;20179;-61
2023/09/09 05:31:51;;;;;;;7.05;6.55;;;23.10;67.20;;;;;;5053596;28;20167;-61
2023/09/09 05:34:17;;;;;;;6.68;6.07;;;23.10;67.20;;;;;;5053878;28;20775;-61
2023/09/09 05:36:42;;;;;;;7.35;6.80;;;23.10;67.10;;;;;;5053951;28;20700;-62
2023/09/09 05:39:08;;;;;;;6.18;5.68;;;23.10;67.10;;;;;;5053106;28;20189;-62
2023/09/09 05:41:33;;;;;;;6.88;6.38;;;23.10;67.10;;;;;;5053769;28;20266;-62
2023/09/09 05:43:59;;;;;;;6.40;5.90;;;23.10;67.10;;;;;;5053608;28;20646;-62
2023/09/09 05:46:24;;;;;;;6.10;5.60;;;23.10;67.10;;;;;;5053124;28;20663;-62
2023/09/09 05:48:50;;;;;;;6.43;5.93;;;23.10;67.20;;;;;;5051795;28;20540;-62
2023/09/09 05:51:15;;;;;;;7.45;6.85;;;23.10;67.10;;;;;;5053388;28;20171;-61
2023/09/09 05:53:41;;;;;;;6.85;6.35;;;23.10;67.00;;;;;;5052785;28;20618;-61
2023/09/09 05:56:07;;;;;;;6.47;5.97;;;23.10;67.10;;;;;;5053210;28;20294;-60
2023/09/09 05:58:35;;;;;;;6.82;6.32;;;23.10;67.00;;;;;;5051963;28;20261;-61
2023/09/09 06:01:00;;;;;;;6.53;5.93;;;23.10;67.00;;;;;;5052718;28;20179;-61
2023/09/09 06:03:26;;;;;;;7.10;6.60;;;23.10;67.00;;;;;;5053443;28;20240;-61
2023/09/09 06:05:51;;;;;;;5.97;5.57;;;23.10;67.00;;;;;;5053475;28;20522;-61
2023/09/09 06:08:17;;;;;;;6.55;6.05;;;23.10;67.00;;;;;;5050980;28;20179;-61
2023/09/09 06:10:43;;;;;;;6.60;6.10;;;23.10;67.00;;;;;;5052130;28;20182;-61
2023/09/09 06:13:08;;;;;;;7.47;6.88;;;23.10;67.00;;;;;;5052947;28;20283;-61
2023/09/09 06:15:34;;;;;;;6.63;6.13;;;23.10;67.00;;;;;;5052190;28;20250;-61
2023/09/09 06:18:00;;;;;;;7.25;6.65;;;23.10;67.00;;;;;;5053088;28;20241;-61
2023/09/09 06:20:26;;;;;;;6.60;6.10;;;23.10;67.00;;;;;;5052687;28;20289;-62
2023/09/09 06:22:51;;;;;;;6.47;6.03;;;23.10;67.00;;;;;;5053011;28;20175;-61
2023/09/09 06:25:18;;;;;;;6.95;6.40;;;23.10;67.00;;;;;;5052803;28;20172;-62
2023/09/09 06:27:44;;;;;;;6.57;6.07;;;23.10;66.90;;;;;;5052144;28;20175;-60
2023/09/09 06:30:10;;;;;;;6.55;6.05;;;23.10;67.80;;;;;;5052992;28;20245;-61
2023/09/09 06:32:36;;;;;;;6.10;5.70;;;23.10;66.90;;;;;;5053236;28;20229;-62
2023/09/09 06:35:02;;;;;;;6.60;6.07;;;23.10;67.00;;;;;;5052226;28;20171;-65
2023/09/09 06:37:28;;;;;;;6.93;6.43;;;23.10;67.00;;;;;;5052785;28;20239;-62
2023/09/09 06:39:53;;;;;;;6.93;6.40;;;23.10;66.90;;;;;;5052738;28;20206;-62
2023/09/09 06:42:21;;;;;;;6.65;6.15;;;23.10;66.90;;;;;;5051733;28;20237;-62
2023/09/09 06:44:46;;;;;;;5.82;5.43;;;23.10;66.90;;;;;;5052926;28;20179;-62
2023/09/09 06:47:12;;;;;;;6.53;6.03;;;23.10;66.90;;;;;;5052390;28;20510;-63
2023/09/09 06:49:38;;;;;;;7.18;6.68;;;23.10;66.90;;;;;;5052193;28;20255;-62
2023/09/09 06:52:04;;;;;;;6.70;6.20;;;23.10;67.00;;;;;;5052618;28;20595;-62
2023/09/09 06:54:29;;;;;;;7.13;6.55;;;23.10;66.90;;;;;;5052619;28;20672;-62
2023/09/09 06:56:55;;;;;;;6.68;6.18;;;23.10;67.00;;;;;;5051873;28;20309;-61
2023/09/09 06:59:20;;;;;;;6.50;6.00;;;23.10;66.90;;;;;;5052557;28;20558;-61
2023/09/09 07:01:46;;;;;;;6.75;6.25;;;23.10;66.90;;;;;;5059321;28;20508;-62
2023/09/09 07:04:11;;;;;;;6.20;5.80;;;23.10;67.00;;;;;;5058471;28;20640;-62
2023/09/09 07:06:37;;;;;;;6.80;6.30;;;23.10;67.00;;;;;;5059303;28;20221;-62
2023/09/09 07:09:03;;;;;;;6.70;6.20;;;23.10;67.00;;;;;;5059031;28;20185;-62
2023/09/09 07:11:28;;;;;;;6.75;6.15;;;23.10;67.00;;;;;;5058269;28;20202;-62
2023/09/09 07:13:54;;;;;;;7.22;6.65;;;23.10;67.00;;;;;;5059357;28;20293;-62
2023/09/09 07:16:19;;;;;;;7.05;6.55;;;23.20;67.00;;;;;;5058976;28;20662;-62
2023/09/09 07:18:45;;;;;;;7.70;7.10;;;23.20;67.10;;;;;;5058325;28;20171;-61
2023/09/09 07:21:11;;;;;;;7.53;6.90;;;23.20;67.10;;;;;;5058884;28;20170;-61
2023/09/09 07:23:36;;;;;;;6.68;6.07;;;23.20;67.10;;;;;;5059039;28;20533;-61
2023/09/09 07:26:02;;;;;;;7.28;6.72;;;23.20;67.10;;;;;;5058049;28;20189;-61
2023/09/09 07:28:28;;;;;;;9.15;8.40;;;23.20;67.10;;;;;;5058903;28;20171;-60
2023/09/09 07:30:53;;;;;;;9.95;9.15;;;23.10;67.10;;;;;;5058434;28;20186;-60
2023/09/09 07:33:19;;;;;;;7.97;7.38;;;23.10;67.10;;;;;;5058791;28;20687;-61
2023/09/09 07:35:45;;;;;;;6.97;6.38;;;23.20;67.10;;;;;;5058972;28;20696;-61
2023/09/09 07:38:10;;;;;;;6.95;6.43;;;23.20;67.10;;;;;;5057950;28;20613;-62
2023/09/09 07:40:36;;;;;;;7.55;6.95;;;23.20;68.00;;;;;;5058965;28;20213;-62
2023/09/09 07:43:02;;;;;;;6.93;6.38;;;23.20;67.10;;;;;;5058875;28;20487;-61
2023/09/09 07:45:28;;;;;;;8.13;7.30;;;23.20;67.10;;;;;;5058132;28;20175;-62
2023/09/09 07:47:53;;;;;;;7.72;7.13;;;23.20;67.10;;;;;;5058858;28;20650;-61
2023/09/09 07:50:19;;;;;;;8.00;7.40;;;23.20;67.10;;;;;;5058533;28;20171;-61
2023/09/09 07:52:44;;;;;;;8.82;8.13;;;23.20;67.10;;;;;;5058236;28;20187;-61
2023/09/09 07:55:10;;;;;;;8.55;7.85;;;23.20;67.40;;;;;;5058473;28;20175;-60
2023/09/09 07:57:35;;;;;;;8.77;7.75;;;23.20;67.40;;;;;;5058938;28;20214;-60
2023/09/09 08:00:01;;;;;;;8.13;7.47;;;23.30;67.90;;;;;;5057758;28;20222;-60
2023/09/09 08:02:27;;;;;;;8.00;7.40;;;23.30;67.50;;;;;;5058825;28;20198;-61
2023/09/09 08:04:52;;;;;;;7.72;7.13;;;23.30;67.60;;;;;;5058877;28;20680;-61
2023/09/09 08:07:18;;;;;;;8.18;7.47;;;23.20;67.50;;;;;;5057682;28;20167;-62
2023/09/09 08:09:44;;;;;;;8.18;7.47;;;23.20;67.40;;;;;;5058629;28;20179;-61
2023/09/09 08:12:09;;;;;;;7.90;7.30;;;23.20;67.40;;;;;;5055866;28;20175;-61
2023/09/09 08:14:35;;;;;;;7.50;6.90;;;23.20;67.40;;;;;;5055081;28;20638;-60
2023/09/09 08:17:00;;;;;;;7.30;6.70;;;23.30;67.50;;;;;;5055282;28;20562;-61
2023/09/09 08:19:26;;;;;;;7.53;6.93;;;23.30;68.30;;;;;;5055381;28;20190;-61
2023/09/09 08:21:52;;;;;;;7.22;6.63;;;23.30;67.50;;;;;;5054702;28;20199;-61
2023/09/09 08:24:17;;;;;;;7.38;6.85;;;23.30;67.50;;;;;;5055031;28;20179;-61
2023/09/09 08:26:43;;;;;;;7.88;7.20;;;23.30;67.50;;;;;;5055191;28;20182;-61
2023/09/09 08:29:08;;;;;;;8.18;7.35;;;23.30;68.40;;;;;;5054466;28;20218;-60
2023/09/09 08:31:35;;;;;;;8.98;8.27;;;23.30;67.80;;;;;;5054827;28;20215;-60
2023/09/09 08:34:00;;;;;;;9.30;8.45;;;23.30;67.90;;;;;;5064559;28;20179;-60
2023/09/09 08:36:27;;;;;;;10.55;9.48;;;23.40;68.10;;;;;;5062139;28;20209;-61
2023/09/09 08:38:56;;;;;;;8.73;7.93;;;23.40;68.20;;;;;;5074998;28;20249;-62
2023/09/09 08:41:48;;;;;;;8.85;8.05;;;23.30;68.90;;;;;;5060468;28;20524;-63
2023/09/09 08:44:37;;;;;;;9.20;8.45;;;23.30;68.20;;;;;;5054941;28;20182;-62
2023/09/09 08:47:03;;;;;;;8.52;7.85;;;23.40;68.10;;;;;;5054616;28;20641;-61
2023/09/09 08:49:29;;;;;;;9.15;8.27;;;23.40;68.20;;;;;;5053910;28;20175;-61
2023/09/09 08:52:08;;;;;;;9.43;8.52;;;23.40;68.30;;;;;;5055072;28;20554;-61
2023/09/09 08:54:34;;;;;;;8.23;7.55;;;23.40;69.30;;;;;;5054902;28;20178;-61
2023/09/09 08:57:00;;;;;;;8.13;7.53;;;23.40;68.40;;;;;;5053876;28;20219;-60
2023/09/09 08:59:26;;;;;;;9.02;8.32;;;23.40;68.50;;;;;;5053284;28;20276;-60
2023/09/09 09:01:51;;;;;;;10.73;8.85;;;23.40;68.40;;;;;;5054411;28;20179;-60
2023/09/09 09:04:17;;;;;;;9.05;8.35;;;23.40;68.50;;;;;;5052567;28;20207;-61
2023/09/09 09:06:48;;;;;;;8.80;8.10;;;23.40;68.50;;;;;;5054703;28;20265;-62
2023/09/09 09:09:17;;;;;;;9.63;8.82;;;23.50;68.60;;;;;;5052665;28;20171;-61
2023/09/09 09:11:46;;;;;;;8.48;7.65;;;23.40;68.60;;;;;;5054632;28;20186;-61
2023/09/09 09:14:11;;;;;;;9.27;8.48;;;23.50;68.60;;;;;;5054125;28;20309;-61
2023/09/09 09:16:40;;;;;;;8.68;7.97;;;23.50;68.60;;;;;;5053584;28;20309;-60
2023/09/09 09:19:12;;;;;;;8.40;7.63;;;23.50;68.70;;;;;;5054190;28;20251;-61
2023/09/09 09:21:37;;;;;;;8.90;7.97;;;23.50;68.60;;;;;;5053237;28;20175;-61
2023/09/09 09:24:03;;;;;;;9.20;8.30;;;23.50;68.70;;;;;;5035485;28;20179;-61
2023/09/09 09:26:29;;;;;;;8.30;7.60;;;23.50;68.70;;;;;;5054226;28;20167;-60
2023/09/09 09:28:55;;;;;;;8.80;8.00;;;23.50;69.60;;;;;;5054127;28;20199;-59
2023/09/09 09:31:24;;;;;;;9.27;8.48;;;23.50;68.70;;;;;;5053205;28;20191;-60
2023/09/09 09:33:51;;;;;;;8.15;7.40;;;23.50;68.70;;;;;;5054210;28;20183;-60
2023/09/09 09:36:20;;;;;;;8.27;7.60;;;23.50;68.60;;;;;;5053662;28;20226;-61
2023/09/09 09:38:46;;;;;;;8.18;7.47;;;23.50;68.60;;;;;;5053122;28;20526;-61
2023/09/09 09:41:12;;;;;;;8.13;7.50;;;23.50;68.60;;;;;;5053484;28;20175;-61
2023/09/09 09:43:37;;;;;;;8.38;7.68;;;23.60;68.60;;;;;;5053769;28;20233;-62
2023/09/09 09:46:16;;;;;;;8.70;7.95;;;23.60;68.70;;;;;;5053122;28;20248;-61
2023/09/09 09:48:41;;;;;;;8.88;8.18;;;23.60;68.70;;;;;;5053928;28;20252;-61
2023/09/09 09:51:07;;;;;;;8.60;7.90;;;23.60;69.50;;;;;;5053471;28;20214;-61
2023/09/09 09:53:48;;;;;;;8.23;7.43;;;23.60;68.70;;;;;;5052816;28;20187;-60
2023/09/09 09:56:17;;;;;;;8.02;7.32;;;23.60;68.60;;;;;;5053208;28;20222;-60
2023/09/09 09:58:43;;;;;;;8.60;7.90;;;23.60;68.60;;;;;;5052816;28;20227;-61
2023/09/09 10:01:09;;;;;;;7.72;7.00;;;23.60;68.60;;;;;;5053461;28;20267;-60
2023/09/09 10:03:51;;;;;;;8.00;7.30;;;23.60;68.60;;;;;;5053241;28;20648;-61
2023/09/09 10:06:22;;;;;;;7.90;7.30;;;23.60;68.70;;;;;;5052285;28;20659;-61
2023/09/09 10:08:52;;;;;;;8.50;7.80;;;23.60;68.70;;;;;;5052272;28;20254;-62
2023/09/09 10:11:19;;;;;;;7.63;7.03;;;23.60;69.70;;;;;;5035730;28;20190;-61
2023/09/09 10:14:12;;;;;;;8.77;7.97;;;23.60;68.70;;;;;;5035118;28;20225;-61
2023/09/09 10:16:38;;;;;;;8.43;7.72;;;23.70;68.80;;;;;;5052147;28;20209;-61
2023/09/09 10:19:03;;;;;;;8.45;7.53;;;23.70;68.70;;;;;;5051791;28;20172;-61
2023/09/09 10:21:29;;;;;;;7.93;7.30;;;23.70;68.80;;;;;;5052560;28;20240;-61
2023/09/09 10:23:54;;;;;;;8.73;7.88;;;23.70;68.70;;;;;;5052113;28;20589;-61
2023/09/09 10:26:20;;;;;;;7.80;7.10;;;23.70;68.70;;;;;;5034882;28;20183;-61
2023/09/09 10:28:46;;;;;;;7.75;7.15;;;23.70;68.70;;;;;;5051187;28;20183;-60
2023/09/09 10:31:12;;;;;;;8.15;7.45;;;23.70;68.70;;;;;;5052752;28;20179;-60
2023/09/09 10:33:41;;;;;;;8.13;7.53;;;23.70;68.70;;;;;;5035022;28;20174;-60
2023/09/09 10:36:07;;;;;;;8.55;7.85;;;23.70;68.60;;;;;;5052408;28;20207;-61
2023/09/09 10:38:33;;;;;;;8.38;7.68;;;23.70;68.60;;;;;;5035263;28;20167;-61
2023/09/09 10:40:58;;;;;;;8.20;7.47;;;23.70;68.60;;;;;;5051923;28;20171;-61
2023/09/09 10:43:24;;;;;;;8.30;7.60;;;23.70;68.60;;;;;;5051496;28;20254;-61
2023/09/09 10:45:50;;;;;;;7.85;7.25;;;23.70;68.50;;;;;;5053259;28;20178;-61
2023/09/09 10:48:20;;;;;;;8.05;7.38;;;23.70;68.50;;;;;;5051831;28;20570;-61
2023/09/09 10:50:47;;;;;;;7.95;7.35;;;23.80;68.60;;;;;;5052830;28;20646;-61
2023/09/09 10:53:28;;;;;;;7.80;7.20;;;23.80;68.50;;;;;;5052656;28;20171;-61
2023/09/09 10:55:58;;;;;;;7.72;7.13;;;23.80;68.50;;;;;;5052043;28;20186;-60
2023/09/09 10:58:34;;;;;;;8.73;8.02;;;23.80;68.50;;;;;;5052450;28;20179;-60
2023/09/09 11:01:00;;;;;;;7.95;7.25;;;23.80;68.50;;;;;;5052646;28;20182;-61
2023/09/09 11:03:35;;;;;;;8.63;7.93;;;23.80;68.50;;;;;;5052014;28;20167;-61
2023/09/09 11:06:10;;;;;;;7.95;7.40;;;23.80;68.30;;;;;;5052496;28;20170;-62
2023/09/09 11:08:41;;;;;;;8.45;7.75;;;23.80;68.50;;;;;;5052582;28;20520;-61
2023/09/09 11:11:15;;;;;;;7.57;6.97;;;23.80;68.50;;;;;;5051554;28;20179;-61
2023/09/09 11:13:53;;;;;;;7.82;7.22;;;23.80;68.50;;;;;;5052723;28;20183;-61
2023/09/09 11:16:24;;;;;;;7.95;7.35;;;23.80;68.50;;;;;;5051527;28;20210;-60
2023/09/09 11:18:52;;;;;;;7.95;7.28;;;23.80;68.40;;;;;;5052384;28;20627;-61
2023/09/09 11:21:25;;;;;;;7.72;7.13;;;23.80;69.20;;;;;;5052078;28;20179;-61
2023/09/09 11:23:51;;;;;;;7.70;7.10;;;23.80;68.30;;;;;;5050861;28;20175;-61
2023/09/09 11:26:16;;;;;;;8.55;7.85;;;23.80;68.30;;;;;;5052308;28;20195;-61
2023/09/09 11:28:46;;;;;;;8.30;7.50;;;23.90;68.30;;;;;;5052615;28;20178;-60
2023/09/09 11:31:12;;;;;;;7.80;7.18;;;23.90;68.20;;;;;;5050168;28;20635;-60
2023/09/09 11:33:38;;;;;;;7.68;7.07;;;23.80;68.20;;;;;;5052462;28;20175;-61
2023/09/09 11:36:04;;;;;;;9.00;8.20;;;23.80;68.10;;;;;;5051951;28;20681;-61
2023/09/09 11:38:31;;;;;;;6.97;6.47;;;23.80;68.10;;;;;;5051714;28;20182;-62
2023/09/09 11:40:57;;;;;;;7.85;7.25;;;23.80;68.10;;;;;;5052402;28;20179;-61
2023/09/09 11:43:23;;;;;;;8.20;7.45;;;23.90;68.10;;;;;;5052195;28;20258;-62
2023/09/09 11:45:48;;;;;;;7.88;7.28;;;23.90;68.10;;;;;;5051804;28;20178;-62
2023/09/09 11:48:14;;;;;;;7.30;6.80;;;23.90;68.10;;;;;;5054486;28;20634;-62
2023/09/09 11:50:43;;;;;;;7.55;6.95;;;23.90;68.10;;;;;;5056127;28;20707;-61
2023/09/09 11:53:09;;;;;;;7.80;7.15;;;23.90;68.00;;;;;;5055246;28;20175;-61
2023/09/09 11:55:35;;;;;;;8.48;7.88;;;23.90;68.00;;;;;;5055936;28;20175;-61
2023/09/09 11:58:00;;;;;;;7.95;7.35;;;24.00;68.10;;;;;;5055652;28;20300;-60
2023/09/09 12:00:26;;;;;;;7.15;6.65;;;24.00;68.00;;;;;;5055198;28;20701;-61
2023/09/09 12:02:51;;;;;;;7.45;6.85;;;23.90;67.90;;;;;;5055856;28;20661;-61
2023/09/09 12:05:17;;;;;;;7.20;6.70;;;24.00;68.00;;;;;;5054762;28;20254;-62
2023/09/09 12:07:43;;;;;;;7.88;7.18;;;23.90;67.90;;;;;;5055043;28;20190;-62
2023/09/09 12:10:12;;;;;;;7.68;7.00;;;23.90;67.90;;;;;;5054494;28;20201;-61
2023/09/09 12:12:40;;;;;;;8.02;7.43;;;23.90;67.90;;;;;;5054128;28;20175;-61
2023/09/09 12:15:05;;;;;;;6.72;6.22;;;24.00;68.00;;;;;;5055528;28;20175;-61
2023/09/09 12:17:31;;;;;;;7.43;6.82;;;23.90;67.80;;;;;;5054218;28;20256;-61
2023/09/09 12:19:57;;;;;;;7.72;7.07;;;24.00;67.80;;;;;;5053422;28;20171;-61
2023/09/09 12:22:33;;;;;;;7.63;6.95;;;24.00;67.90;;;;;;5055566;28;20181;-61
2023/09/09 12:24:59;;;;;;;7.13;6.60;;;24.00;67.80;;;;;;5055227;28;20202;-60
2023/09/09 12:27:41;;;;;;;6.95;6.45;;;24.00;67.90;;;;;;5054666;28;20610;-60
2023/09/09 12:30:28;;;;;;;7.68;7.07;;;24.00;67.80;;;;;;5054987;28;20205;-60
2023/09/09 12:32:53;;;;;;;7.55;6.95;;;24.00;67.80;;;;;;5054049;28;20172;-61
2023/09/09 12:35:19;;;;;;;7.55;6.95;;;24.00;67.80;;;;;;5053155;28;20690;-61
2023/09/09 12:37:44;;;;;;;7.90;7.30;;;24.00;67.70;;;;;;5055200;28;20214;-61
2023/09/09 12:40:10;;;;;;;6.60;6.10;;;24.00;67.90;;;;;;5054975;28;20549;-61
2023/09/09 12:42:36;;;;;;;7.35;6.75;;;24.00;67.80;;;;;;5054293;28;20179;-61
2023/09/09 12:45:01;;;;;;;6.95;6.35;;;24.00;67.80;;;;;;5054767;28;20194;-61